Terminal Aerodrome Forecast
Issued by NWS Jackson, KY

Home | Current Version | Previous Version | Text Only | Print | Product List | Glossary Off
Versions: 1 2 3 4 5 6 7 8 9 10 11 12 13 14 15

139
FTUS43 KJKL 041921 AAA
TAFLOZ
TAF AMD
KLOZ 041921Z 0419/0518 27010KT 6SM -SHRA VCTS SCT040CB OVC080
     FM042200 27008KT P6SM VCSH OVC035
     FM050200 30009KT P6SM OVC050
     FM051400 31008KT P6SM OVC015=

USA.gov is the U.S. government's official web portal to all federal, state and local government web resources and services.